Metar z połowy godziny Komunikat METAR ze strony awiacja.imgw.pl Metar G30 EPZG METAR EPZG 200230Z 00000KT CAVOK 15/13 Q1015 =